Epic Capri — 9HA2845 — position and weather

sailwx.info

Track history (hours):
 
Tides and Currents Weather Stations Pressure Air Temp Water Temp Dewpoint Dewpoint Depression Visibility Wind Speed Wind Dir Waves Ship Positions

Epic Capri

Last reported at 2017-Jan-20 19:33 UTC. Time now 2017-Jan-20 20:15 UTC.
Position N 38°16' W 024°51'.

Length 99 m; draft 5 m.

Type: Ship (hazmat cat B). MMSI: 256325000.

Date/timePositionNaut miles runAvg speedWind from/ knotsBaromVisibWave heightAir tempDewpointWater temp
2017-Jan-20 19:33N 38°16' W 024°51'1110.9
2017-Jan-20 18:33N 38°16' W 025°05'1111.3
2017-Jan-20 17:33N 38°16' W 025°19'1111.3
2017-Jan-20 16:33N 38°17' W 025°34'1111.3
2017-Jan-20 15:33N 38°17' W 025°48'1111.4
2017-Jan-20 14:33N 38°17' W 026°03'1111.2
2017-Jan-20 13:33N 38°18' W 026°17'1111.2
2017-Jan-20 12:34N 38°18' W 026°31'1111.1
2017-Jan-20 11:33N 38°19' W 026°45'1111.3
2017-Jan-20 10:33N 38°21' W 026°59'1111.0
2017-Jan-20 09:33N 38°23' W 027°13'1111.3
2017-Jan-20 08:33N 38°25' W 027°28'1111.4
2017-Jan-20 07:33N 38°27' W 027°42'1211.6
2017-Jan-20 06:33N 38°30' W 027°56'1211.9
2017-Jan-20 05:33N 38°34' W 028°11'1111.4
2017-Jan-20 04:33N 38°36' W 028°25'10 9.9
2017-Jan-20 03:33N 38°32' W 028°36'1 0.7
2017-Jan-20 02:31N 38°32' W 028°37'0 0.0
2017-Jan-20 01:33N 38°32' W 028°37'0 0.0
2017-Jan-20 00:33N 38°32' W 028°37'0 0.0
2017-Jan-19 23:33N 38°32' W 028°37'0 0.0
2017-Jan-19 22:33N 38°32' W 028°37'0 0.0
2017-Jan-19 21:33N 38°32' W 028°37'0 0.0
2017-Jan-19 20:33N 38°32' W 028°37'0 0.0
2017-Jan-19 19:33N 38°32' W 028°37'0 0.0
2017-Jan-19 18:33N 38°32' W 028°37'0 0.3
2017-Jan-19 17:33N 38°32' W 028°37'5 5.2
2017-Jan-19 16:33N 38°34' W 028°31'10 9.7
2017-Jan-19 15:33N 38°36' W 028°19'1010.2
2017-Jan-19 14:33N 38°33' W 028°07'1110.5
2017-Jan-19 13:34N 38°29' W 027°54'1010.4
2017-Jan-19 12:33N 38°28' W 027°41'1010.1
2017-Jan-19 11:34N 38°30' W 027°29'10 9.7
2017-Jan-19 10:33N 38°33' W 027°16'10 9.7
2017-Jan-19 09:29N 38°35' W 027°04'8 0.6
2017-Jan-18 20:34N 38°43' W 027°03'23 7.7
2017-Jan-18 17:33N 38°27' W 026°41'1010.3
2017-Jan-18 16:33N 38°20' W 026°32'1010.2
2017-Jan-18 15:33N 38°13' W 026°23'1010.1
2017-Jan-18 14:33N 38°05' W 026°14'1010.5
2017-Jan-18 13:33N 37°58' W 026°05'1111.0
2017-Jan-18 12:34N 37°50' W 025°55'1010.2
2017-Jan-18 11:33N 37°43' W 025°46'6 5.6
2017-Jan-18 10:33N 37°44' W 025°39'1 1.0
2017-Jan-18 09:33N 37°44' W 025°40'0 0.0
2017-Jan-18 08:33N 37°44' W 025°40'0 0.0
2017-Jan-18 07:32N 37°44' W 025°40'0 0.0
2017-Jan-18 06:33N 37°44' W 025°40'0 0.0
2017-Jan-18 05:32N 37°44' W 025°40'0 0.0
2017-Jan-18 04:33N 37°44' W 025°40'0 0.0
2017-Jan-18 03:33N 37°44' W 025°40'0 0.0
2017-Jan-18 02:33N 37°44' W 025°40'0 0.0
2017-Jan-18 01:33N 37°44' W 025°40'0 0.0
2017-Jan-18 00:33N 37°44' W 025°40'0 0.0
2017-Jan-17 23:33N 37°44' W 025°40'0 0.0
2017-Jan-17 22:33N 37°44' W 025°40'0 0.0
2017-Jan-17 21:33N 37°44' W 025°40'0 0.0
2017-Jan-17 20:33N 37°44' W 025°40'0 0.0
2017-Jan-17 19:33N 37°44' W 025°40'0 0.0
2017-Jan-17 18:33N 37°44' W 025°40'0 0.0
2017-Jan-17 17:33N 37°44' W 025°40'0 0.0
2017-Jan-17 16:32N 37°44' W 025°40'0 0.0
2017-Jan-17 15:32N 37°44' W 025°40'2 1.6
2017-Jan-17 14:34N 37°43' W 025°38'3 2.8
2017-Jan-17 13:34N 37°41' W 025°36'1 0.6
2017-Jan-17 12:33N 37°41' W 025°35'1 0.6
2017-Jan-17 11:33N 37°41' W 025°35'0 0.4
2017-Jan-17 10:34N 37°41' W 025°34'0 0.3
2017-Jan-17 09:33N 37°40' W 025°34'0 0.2
2017-Jan-17 08:33N 37°40' W 025°34'0 0.3
2017-Jan-17 07:33N 37°40' W 025°33'0 0.5
2017-Jan-17 06:34N 37°40' W 025°33'1 0.7
2017-Jan-17 05:33N 37°39' W 025°33'1 0.7
2017-Jan-17 04:34N 37°38' W 025°33'3 3.4
2017-Jan-17 03:33N 37°38' W 025°29'9 8.9
2017-Jan-17 02:34N 37°38' W 025°18'9 9.2
2017-Jan-17 01:33N 37°38' W 025°06'9 9.0
2017-Jan-17 00:33N 37°40' W 024°55'9 9.2
2017-Jan-16 23:33N 37°41' W 024°43'9 9.0
2017-Jan-16 22:33N 37°43' W 024°32'9 8.9
2017-Jan-16 21:33N 37°45' W 024°21'9 8.8
2017-Jan-16 20:33N 37°47' W 024°11'9 8.4
2017-Jan-16 19:33N 37°50' W 024°00'8 8.5
2017-Jan-16 18:33N 37°52' W 023°50'  
2017-Jan-13 23:33N 37°53' W 009°07'10 9.8
2017-Jan-13 22:33N 37°54' W 008°55'3 3.3
2017-Jan-13 21:33N 37°57' W 008°53'0 0.0
2017-Jan-13 20:33N 37°57' W 008°53'0 0.0
2017-Jan-13 19:33N 37°57' W 008°53'0 0.0
2017-Jan-13 18:33N 37°57' W 008°53'0 0.0
2017-Jan-13 17:33N 37°57' W 008°53'0 0.0
2017-Jan-13 16:33N 37°57' W 008°53'0 0.0
2017-Jan-13 15:33N 37°57' W 008°53'0 0.0
2017-Jan-13 14:33N 37°57' W 008°53'0 0.0
2017-Jan-13 13:33N 37°57' W 008°53'0 0.0
2017-Jan-13 12:33N 37°57' W 008°53'0 0.0
2017-Jan-13 11:33N 37°57' W 008°53'0 0.0
2017-Jan-13 10:33N 37°57' W 008°53'0 0.0
2017-Jan-13 09:33N 37°57' W 008°53'0 0.0
2017-Jan-13 08:31N 37°57' W 008°53'0 0.0
2017-Jan-13 07:31N 37°57' W 008°53'0 0.0
2017-Jan-13 06:31N 37°57' W 008°53'0 0.0
2017-Jan-13 05:31N 37°57' W 008°53'0 0.0
2017-Jan-13 04:31N 37°57' W 008°53'0 0.0
2017-Jan-13 03:31N 37°57' W 008°53'0 0.0
2017-Jan-13 02:31N 37°57' W 008°53'0 0.0
2017-Jan-13 01:31N 37°57' W 008°53'0 0.0
2017-Jan-13 00:31N 37°57' W 008°53'0 0.0
2017-Jan-12 23:31N 37°57' W 008°53'0 0.4
2017-Jan-12 22:33N 37°57' W 008°53'2 2.2
2017-Jan-12 21:33N 37°54' W 008°53'0 0.0
2017-Jan-12 20:33N 37°54' W 008°53'0 0.0
2017-Jan-12 19:33N 37°54' W 008°53'0 0.0
2017-Jan-12 18:30N 37°54' W 008°53'0 0.0
2017-Jan-12 17:33N 37°55' W 008°53'0 0.0
2017-Jan-12 16:33N 37°54' W 008°53'0 0.0
2017-Jan-12 15:33N 37°54' W 008°53'0 0.0
2017-Jan-12 14:33N 37°55' W 008°53'1 1.4
2017-Jan-12 13:34N 37°54' W 008°54'1110.7
2017-Jan-12 12:33N 37°47' W 009°05'1211.6
2017-Jan-12 11:34N 37°40' W 009°16'2611.4
2017-Jan-12 09:19N 37°24' W 009°41'  
Track history (hours):
 
Tides and Currents Weather Stations Pressure Air Temp Water Temp Dewpoint Dewpoint Depression Visibility Wind Speed Wind Dir Waves Ship Positions

Epic Capri

Last reported at 2017-Jan-20 19:33 UTC. Time now 2017-Jan-20 20:15 UTC.
Position N 38°16' W 024°51'.

Length 99 m; draft 5 m.

Type: Ship (hazmat cat B). MMSI: 256325000.

Date/timePositionNaut miles runAvg speedWind from/ knotsBaromVisibWave heightAir tempDewpointWater temp
2017-Jan-20 19:33N 38°16' W 024°51'1110.9
2017-Jan-20 18:33N 38°16' W 025°05'1111.3
2017-Jan-20 17:33N 38°16' W 025°19'1111.3
2017-Jan-20 16:33N 38°17' W 025°34'1111.3
2017-Jan-20 15:33N 38°17' W 025°48'1111.4
2017-Jan-20 14:33N 38°17' W 026°03'1111.2
2017-Jan-20 13:33N 38°18' W 026°17'1111.2
2017-Jan-20 12:34N 38°18' W 026°31'1111.1
2017-Jan-20 11:33N 38°19' W 026°45'1111.3
2017-Jan-20 10:33N 38°21' W 026°59'1111.0
2017-Jan-20 09:33N 38°23' W 027°13'1111.3
2017-Jan-20 08:33N 38°25' W 027°28'1111.4
2017-Jan-20 07:33N 38°27' W 027°42'1211.6
2017-Jan-20 06:33N 38°30' W 027°56'1211.9
2017-Jan-20 05:33N 38°34' W 028°11'1111.4
2017-Jan-20 04:33N 38°36' W 028°25'10 9.9
2017-Jan-20 03:33N 38°32' W 028°36'1 0.7
2017-Jan-20 02:31N 38°32' W 028°37'0 0.0
2017-Jan-20 01:33N 38°32' W 028°37'0 0.0
2017-Jan-20 00:33N 38°32' W 028°37'0 0.0
2017-Jan-19 23:33N 38°32' W 028°37'0 0.0
2017-Jan-19 22:33N 38°32' W 028°37'0 0.0
2017-Jan-19 21:33N 38°32' W 028°37'0 0.0
2017-Jan-19 20:33N 38°32' W 028°37'0 0.0
2017-Jan-19 19:33N 38°32' W 028°37'0 0.0
2017-Jan-19 18:33N 38°32' W 028°37'0 0.3
2017-Jan-19 17:33N 38°32' W 028°37'5 5.2
2017-Jan-19 16:33N 38°34' W 028°31'10 9.7
2017-Jan-19 15:33N 38°36' W 028°19'1010.2
2017-Jan-19 14:33N 38°33' W 028°07'1110.5
2017-Jan-19 13:34N 38°29' W 027°54'1010.4
2017-Jan-19 12:33N 38°28' W 027°41'1010.1
2017-Jan-19 11:34N 38°30' W 027°29'10 9.7
2017-Jan-19 10:33N 38°33' W 027°16'10 9.7
2017-Jan-19 09:29N 38°35' W 027°04'8 0.6
2017-Jan-18 20:34N 38°43' W 027°03'23 7.7
2017-Jan-18 17:33N 38°27' W 026°41'1010.3
2017-Jan-18 16:33N 38°20' W 026°32'1010.2
2017-Jan-18 15:33N 38°13' W 026°23'1010.1
2017-Jan-18 14:33N 38°05' W 026°14'1010.5
2017-Jan-18 13:33N 37°58' W 026°05'1111.0
2017-Jan-18 12:34N 37°50' W 025°55'1010.2
2017-Jan-18 11:33N 37°43' W 025°46'6 5.6
2017-Jan-18 10:33N 37°44' W 025°39'1 1.0
2017-Jan-18 09:33N 37°44' W 025°40'0 0.0
2017-Jan-18 08:33N 37°44' W 025°40'0 0.0
2017-Jan-18 07:32N 37°44' W 025°40'0 0.0
2017-Jan-18 06:33N 37°44' W 025°40'0 0.0
2017-Jan-18 05:32N 37°44' W 025°40'0 0.0
2017-Jan-18 04:33N 37°44' W 025°40'0 0.0
2017-Jan-18 03:33N 37°44' W 025°40'0 0.0
2017-Jan-18 02:33N 37°44' W 025°40'0 0.0
2017-Jan-18 01:33N 37°44' W 025°40'0 0.0
2017-Jan-18 00:33N 37°44' W 025°40'0 0.0
2017-Jan-17 23:33N 37°44' W 025°40'0 0.0
2017-Jan-17 22:33N 37°44' W 025°40'0 0.0
2017-Jan-17 21:33N 37°44' W 025°40'0 0.0
2017-Jan-17 20:33N 37°44' W 025°40'0 0.0
2017-Jan-17 19:33N 37°44' W 025°40'0 0.0
2017-Jan-17 18:33N 37°44' W 025°40'0 0.0
2017-Jan-17 17:33N 37°44' W 025°40'0 0.0
2017-Jan-17 16:32N 37°44' W 025°40'0 0.0
2017-Jan-17 15:32N 37°44' W 025°40'2 1.6
2017-Jan-17 14:34N 37°43' W 025°38'3 2.8
2017-Jan-17 13:34N 37°41' W 025°36'1 0.6
2017-Jan-17 12:33N 37°41' W 025°35'1 0.6
2017-Jan-17 11:33N 37°41' W 025°35'0 0.4
2017-Jan-17 10:34N 37°41' W 025°34'0 0.3
2017-Jan-17 09:33N 37°40' W 025°34'0 0.2
2017-Jan-17 08:33N 37°40' W 025°34'0 0.3
2017-Jan-17 07:33N 37°40' W 025°33'0 0.5
2017-Jan-17 06:34N 37°40' W 025°33'1 0.7
2017-Jan-17 05:33N 37°39' W 025°33'1 0.7
2017-Jan-17 04:34N 37°38' W 025°33'3 3.4
2017-Jan-17 03:33N 37°38' W 025°29'9 8.9
2017-Jan-17 02:34N 37°38' W 025°18'9 9.2
2017-Jan-17 01:33N 37°38' W 025°06'9 9.0
2017-Jan-17 00:33N 37°40' W 024°55'9 9.2
2017-Jan-16 23:33N 37°41' W 024°43'9 9.0
2017-Jan-16 22:33N 37°43' W 024°32'9 8.9
2017-Jan-16 21:33N 37°45' W 024°21'9 8.8
2017-Jan-16 20:33N 37°47' W 024°11'9 8.4
2017-Jan-16 19:33N 37°50' W 024°00'8 8.5
2017-Jan-16 18:33N 37°52' W 023°50'  
2017-Jan-13 23:33N 37°53' W 009°07'10 9.8
2017-Jan-13 22:33N 37°54' W 008°55'3 3.3
2017-Jan-13 21:33N 37°57' W 008°53'0 0.0
2017-Jan-13 20:33N 37°57' W 008°53'0 0.0
2017-Jan-13 19:33N 37°57' W 008°53'0 0.0
2017-Jan-13 18:33N 37°57' W 008°53'0 0.0
2017-Jan-13 17:33N 37°57' W 008°53'0 0.0
2017-Jan-13 16:33N 37°57' W 008°53'0 0.0
2017-Jan-13 15:33N 37°57' W 008°53'0 0.0
2017-Jan-13 14:33N 37°57' W 008°53'0 0.0
2017-Jan-13 13:33N 37°57' W 008°53'0 0.0
2017-Jan-13 12:33N 37°57' W 008°53'0 0.0
2017-Jan-13 11:33N 37°57' W 008°53'0 0.0
2017-Jan-13 10:33N 37°57' W 008°53'0 0.0
2017-Jan-13 09:33N 37°57' W 008°53'0 0.0
2017-Jan-13 08:31N 37°57' W 008°53'0 0.0
2017-Jan-13 07:31N 37°57' W 008°53'0 0.0
2017-Jan-13 06:31N 37°57' W 008°53'0 0.0
2017-Jan-13 05:31N 37°57' W 008°53'0 0.0
2017-Jan-13 04:31N 37°57' W 008°53'0 0.0
2017-Jan-13 03:31N 37°57' W 008°53'0 0.0
2017-Jan-13 02:31N 37°57' W 008°53'0 0.0
2017-Jan-13 01:31N 37°57' W 008°53'0 0.0
2017-Jan-13 00:31N 37°57' W 008°53'0 0.0
2017-Jan-12 23:31N 37°57' W 008°53'0 0.4
2017-Jan-12 22:33N 37°57' W 008°53'2 2.2
2017-Jan-12 21:33N 37°54' W 008°53'0 0.0
2017-Jan-12 20:33N 37°54' W 008°53'0 0.0
2017-Jan-12 19:33N 37°54' W 008°53'0 0.0
2017-Jan-12 18:30N 37°54' W 008°53'0 0.0
2017-Jan-12 17:33N 37°55' W 008°53'0 0.0
2017-Jan-12 16:33N 37°54' W 008°53'0 0.0
2017-Jan-12 15:33N 37°54' W 008°53'0 0.0
2017-Jan-12 14:33N 37°55' W 008°53'1 1.4
2017-Jan-12 13:34N 37°54' W 008°54'1110.7
2017-Jan-12 12:33N 37°47' W 009°05'1211.6
2017-Jan-12 11:34N 37°40' W 009°16'2611.4
2017-Jan-12 09:19N 37°24' W 009°41'  

Dump ship's entire track history